Time;durP1;ratioP1;P1;durP2;ratioP2;P2;SDS_P1;SDS_P2;PMS_P1;PMS_P2;Temp;Humidity;BMP_temperature;BMP_pressure;BME280_temperature;BME280_humidity;BME280_pressure;Samples;Min_cycle;Max_cycle;Signal;HPM_P1;HPM_P2
2023/10/11 00:02:55;;;;;;;7.18;4.20;;;19.20;99.40;;;;;;4994564;28;20034;-39
2023/10/11 00:05:21;;;;;;;7.90;4.25;;;19.20;99.40;;;;;;4994250;28;20034;-39
2023/10/11 00:07:47;;;;;;;8.27;4.57;;;19.20;99.50;;;;;;4994803;28;20053;-38
2023/10/11 00:10:19;;;;;;;9.25;4.40;;;19.20;99.50;;;;;;4997502;28;20023;-38
2023/10/11 00:12:46;;;;;;;9.10;4.00;;;19.20;99.40;;;;;;4997234;28;20088;-38
2023/10/11 00:15:11;;;;;;;7.03;4.05;;;19.20;99.40;;;;;;4994193;28;20027;-37
2023/10/11 00:17:37;;;;;;;7.63;4.68;;;19.20;99.40;;;;;;4994203;28;20033;-38
2023/10/11 00:20:19;;;;;;;7.35;4.22;;;19.20;99.40;;;;;;4994365;28;20026;-37
2023/10/11 00:22:45;;;;;;;7.63;4.38;;;19.20;99.40;;;;;;4994168;28;20380;-38
2023/10/11 00:25:23;;;;;;;7.82;3.90;;;19.20;99.40;;;;;;4993766;28;20014;-40
2023/10/11 00:27:52;;;;;;;7.32;4.10;;;19.20;99.40;;;;;;4994016;28;20051;-39
2023/10/11 00:30:21;;;;;;;11.40;4.55;;;19.20;99.40;;;;;;4993918;28;20022;-38
2023/10/11 00:32:47;;;;;;;8.85;3.97;;;19.20;99.50;;;;;;4993974;28;20507;-40
2023/10/11 00:35:18;;;;;;;6.80;3.63;;;19.20;99.40;;;;;;4993666;28;20077;-37
2023/10/11 00:37:51;;;;;;;6.25;3.95;;;19.10;99.40;;;;;;4976168;28;20037;-37
2023/10/11 00:40:25;;;;;;;9.07;4.55;;;19.20;99.30;;;;;;4993842;28;20025;-37
2023/10/11 00:42:51;;;;;;;10.02;4.00;;;19.20;99.30;;;;;;4993773;28;20294;-37
2023/10/11 00:45:17;;;;;;;7.78;4.68;;;19.10;99.20;;;;;;4993461;28;20037;-37
2023/10/11 00:47:45;;;;;;;6.28;4.07;;;19.20;99.30;;;;;;4993235;28;20093;-37
2023/10/11 00:50:14;;;;;;;7.28;4.30;;;19.10;99.20;;;;;;4993408;28;20672;-38
2023/10/11 00:52:45;;;;;;;10.10;4.97;;;19.10;99.20;;;;;;4993350;28;20491;-37
2023/10/11 00:55:17;;;;;;;7.32;3.83;;;19.10;99.20;;;;;;4993115;28;20058;-39
2023/10/11 00:57:48;;;;;;;7.10;4.28;;;19.10;99.20;;;;;;4993164;28;20018;-38
2023/10/11 01:00:16;;;;;;;9.32;4.40;;;19.10;99.20;;;;;;4993566;28;20154;-38
2023/10/11 01:02:44;;;;;;;7.88;4.15;;;19.10;99.20;;;;;;4993158;28;20018;-38
2023/10/11 01:05:11;;;;;;;8.90;4.57;;;19.10;99.20;;;;;;4992976;28;20056;-37
2023/10/11 01:07:40;;;;;;;8.55;4.15;;;19.10;99.40;;;;;;4992923;28;20046;-37
2023/10/11 01:10:07;;;;;;;11.75;4.72;;;19.10;99.20;;;;;;4993012;28;20029;-37
2023/10/11 01:12:33;;;;;;;8.52;4.65;;;19.10;99.10;;;;;;4992864;28;20026;-37
2023/10/11 01:14:59;;;;;;;9.95;4.72;;;19.10;99.10;;;;;;4975092;28;20045;-38
2023/10/11 01:17:34;;;;;;;7.18;3.90;;;19.10;99.10;;;;;;4992713;28;20025;-37
2023/10/11 01:20:00;;;;;;;8.13;4.20;;;19.10;99.00;;;;;;4992816;28;20041;-39
2023/10/11 01:22:28;;;;;;;8.95;4.38;;;19.10;99.10;;;;;;4992707;28;20027;-38
2023/10/11 01:24:57;;;;;;;8.95;4.80;;;19.10;99.20;;;;;;4992534;28;20026;-37
2023/10/11 01:27:30;;;;;;;7.78;4.10;;;19.00;99.10;;;;;;4992376;28;20042;-39
2023/10/11 01:29:58;;;;;;;7.68;4.32;;;19.00;99.10;;;;;;4992987;28;20380;-38
2023/10/11 01:32:24;;;;;;;7.75;3.85;;;19.10;99.10;;;;;;4992546;28;20104;-38
2023/10/11 01:34:51;;;;;;;6.53;4.05;;;19.10;99.10;;;;;;4992926;28;20064;-37
2023/10/11 01:37:20;;;;;;;8.02;4.25;;;19.10;99.10;;;;;;4992161;28;20030;-41
2023/10/11 01:39:46;;;;;;;7.85;4.22;;;19.00;99.10;;;;;;4992293;28;20041;-39
2023/10/11 01:42:11;;;;;;;8.50;4.68;;;19.00;99.10;;;;;;4992405;28;20029;-41
2023/10/11 01:44:38;;;;;;;8.63;4.38;;;19.10;99.20;;;;;;4992595;28;20475;-41
2023/10/11 01:47:06;;;;;;;9.02;4.20;;;19.10;99.10;;;;;;4992079;28;20022;-40
2023/10/11 01:49:39;;;;;;;8.55;4.35;;;19.10;99.10;;;;;;4992227;28;20015;-42
2023/10/11 01:52:06;;;;;;;9.80;4.38;;;19.00;99.00;;;;;;4992111;28;20428;-38
2023/10/11 01:54:34;;;;;;;7.30;3.95;;;19.00;99.00;;;;;;4992029;28;20023;-44
2023/10/11 01:57:02;;;;;;;11.02;4.57;;;19.00;99.00;;;;;;4991935;28;20027;-41
2023/10/11 01:59:28;;;;;;;7.68;4.13;;;19.00;99.00;;;;;;4992120;28;20442;-37
2023/10/11 02:02:03;;;;;;;8.00;4.60;;;19.00;99.00;;;;;;4992148;28;20034;-39
2023/10/11 02:04:29;;;;;;;12.10;4.03;;;19.00;99.00;;;;;;4992153;28;20018;-38
2023/10/11 02:06:55;;;;;;;9.38;4.03;;;19.00;99.00;;;;;;4991674;28;20405;-38
2023/10/11 02:09:21;;;;;;;6.70;4.15;;;19.00;99.00;;;;;;4991959;28;20026;-38
2023/10/11 02:11:52;;;;;;;8.60;4.57;;;19.00;98.90;;;;;;4992013;28;20022;-37
2023/10/11 02:14:22;;;;;;;6.43;3.58;;;19.00;98.90;;;;;;4992248;28;20072;-38
2023/10/11 02:16:47;;;;;;;8.95;4.40;;;19.00;98.90;;;;;;4991642;28;20034;-39
2023/10/11 02:19:15;;;;;;;9.07;4.13;;;19.00;99.00;;;;;;4991789;28;20023;-41
2023/10/11 02:21:44;;;;;;;7.65;4.28;;;19.00;98.90;;;;;;4991784;28;20026;-37
2023/10/11 02:24:16;;;;;;;7.97;4.22;;;19.00;99.00;;;;;;4991693;28;20025;-37
2023/10/11 02:26:50;;;;;;;10.18;4.28;;;19.00;98.90;;;;;;4991509;28;20068;-38
2023/10/11 02:29:20;;;;;;;;;;;18.90;98.90;;;;;;4992285;28;20089;-38
2023/10/11 02:31:50;;;;;;;7.65;4.18;;;19.00;99.30;;;;;;4991698;28;20302;-39
2023/10/11 02:34:16;;;;;;;7.35;3.90;;;19.00;99.00;;;;;;4974230;28;20057;-38
2023/10/11 02:36:42;;;;;;;7.22;3.85;;;19.00;99.00;;;;;;4991283;28;20487;-38
2023/10/11 02:39:17;;;;;;;7.13;4.00;;;19.00;99.00;;;;;;4991703;28;20027;-38
2023/10/11 02:41:45;;;;;;;7.68;4.28;;;19.00;98.90;;;;;;4991744;28;20049;-37
2023/10/11 02:44:12;;;;;;;6.65;4.00;;;19.00;98.90;;;;;;4991653;28;20030;-40
2023/10/11 02:46:37;;;;;;;10.05;4.43;;;19.00;98.90;;;;;;4991303;28;20026;-38
2023/10/11 02:49:18;;;;;;;8.02;4.03;;;18.90;98.90;;;;;;4993736;28;20015;-38
2023/10/11 02:51:53;;;;;;;8.38;4.05;;;19.00;98.90;;;;;;4995592;28;20134;-48
2023/10/11 02:54:23;;;;;;;;;;;18.90;98.90;;;;;;4995917;28;20109;-39
2023/10/11 02:56:52;;;;;;;7.40;4.07;;;18.90;98.80;;;;;;4995174;28;19906;-41
2023/10/11 02:59:25;;;;;;;8.30;4.03;;;18.90;98.80;;;;;;4977708;28;20480;-39
2023/10/11 03:02:01;;;;;;;6.43;4.15;;;18.90;98.80;;;;;;4995391;28;20396;-39
2023/10/11 03:04:34;;;;;;;9.45;4.20;;;18.90;98.90;;;;;;4995300;28;20129;-40
2023/10/11 03:07:00;;;;;;;9.07;4.97;;;18.90;98.80;;;;;;4994957;28;20076;-41
2023/10/11 03:09:29;;;;;;;7.60;4.00;;;18.90;98.80;;;;;;4995103;28;20387;-43
2023/10/11 03:12:06;;;;;;;8.70;4.25;;;18.90;98.80;;;;;;4995139;28;20030;-42
2023/10/11 03:14:41;;;;;;;7.60;3.88;;;18.90;98.80;;;;;;4995115;28;20018;-41
2023/10/11 03:17:13;;;;;;;7.63;4.28;;;18.90;98.70;;;;;;4994945;28;20034;-41
2023/10/11 03:19:43;;;;;;;9.65;4.25;;;18.90;98.80;;;;;;4994965;28;20039;-40
2023/10/11 03:22:21;;;;;;;5.82;3.90;;;18.90;98.80;;;;;;4994918;28;20370;-44
2023/10/11 03:24:59;;;;;;;9.50;4.25;;;18.90;98.70;;;;;;4994931;28;20120;-40
2023/10/11 03:27:27;;;;;;;8.32;4.00;;;18.90;98.70;;;;;;4994709;28;20033;-40
2023/10/11 03:29:53;;;;;;;7.10;4.18;;;18.90;98.70;;;;;;4994754;28;20380;-45
2023/10/11 03:32:19;;;;;;;11.35;4.13;;;18.90;98.70;;;;;;4994695;28;20026;-41
2023/10/11 03:34:45;;;;;;;11.63;4.70;;;18.90;98.70;;;;;;4994618;28;20558;-42
2023/10/11 03:37:17;;;;;;;11.25;4.55;;;18.90;98.70;;;;;;4976857;28;20084;-47
2023/10/11 03:39:56;;;;;;;8.02;4.07;;;18.90;98.60;;;;;;4994705;28;20022;-38
2023/10/11 03:42:27;;;;;;;10.13;5.10;;;18.90;98.70;;;;;;4994681;28;20527;-39
2023/10/11 03:44:53;;;;;;;11.48;5.00;;;18.80;98.70;;;;;;4994502;28;20124;-39
2023/10/11 03:47:27;;;;;;;7.32;4.55;;;18.80;98.70;;;;;;4994690;28;20054;-39
2023/10/11 03:49:52;;;;;;;9.25;4.57;;;18.80;98.70;;;;;;4994867;28;20022;-42
2023/10/11 03:52:31;;;;;;;5.97;3.70;;;18.80;98.70;;;;;;4994510;28;20022;-39
2023/10/11 03:55:09;;;;;;;7.85;4.45;;;18.80;98.70;;;;;;4994216;28;20027;-39
2023/10/11 03:57:42;;;;;;;7.78;4.13;;;18.80;98.70;;;;;;4994236;28;20181;-39
2023/10/11 04:02:48;;;;;;;12.13;4.38;;;18.80;98.60;;;;;;4994369;28;20432;-39
2023/10/11 04:05:14;;;;;;;7.65;4.60;;;18.80;98.60;;;;;;4993901;28;20058;-41
2023/10/11 04:07:40;;;;;;;9.73;4.45;;;18.80;98.60;;;;;;4993983;28;20050;-41
2023/10/11 04:10:09;;;;;;;10.13;4.68;;;18.80;98.50;;;;;;4994150;28;20014;-39
2023/10/11 04:12:42;;;;;;;8.20;4.82;;;18.80;98.60;;;;;;4994133;28;20110;-39
2023/10/11 04:15:24;;;;;;;6.65;4.07;;;18.70;98.50;;;;;;4993934;28;20072;-40
2023/10/11 04:17:55;;;;;;;8.18;4.53;;;18.80;98.50;;;;;;4993951;28;20030;-42
2023/10/11 04:20:29;;;;;;;8.10;4.65;;;18.70;98.50;;;;;;4993963;28;20022;-39
2023/10/11 04:23:10;;;;;;;6.63;4.20;;;18.70;98.60;;;;;;4994131;28;20488;-39
2023/10/11 04:25:37;;;;;;;8.63;4.07;;;18.80;98.60;;;;;;4993737;28;20102;-39
2023/10/11 04:28:05;;;;;;;9.95;4.53;;;18.80;98.60;;;;;;4993639;28;20026;-39
2023/10/11 04:30:46;;;;;;;7.93;4.32;;;18.80;98.60;;;;;;4993664;28;20109;-38
2023/10/11 04:33:19;;;;;;;7.30;4.03;;;18.80;98.60;;;;;;4993983;28;20834;-37
2023/10/11 04:35:55;;;;;;;11.10;4.83;;;18.80;98.60;;;;;;4993607;28;20088;-38
2023/10/11 04:38:21;;;;;;;8.27;4.60;;;18.70;98.50;;;;;;4993468;28;20515;-37
2023/10/11 04:40:53;;;;;;;6.82;3.97;;;18.70;98.50;;;;;;4993521;28;20053;-38
2023/10/11 04:43:26;;;;;;;7.00;3.95;;;18.70;98.60;;;;;;4993529;28;20458;-37
2023/10/11 04:45:55;;;;;;;15.15;4.60;;;18.60;96.30;;;;;;4993373;28;20023;-39
2023/10/11 04:48:39;;;;;;;12.90;4.97;;;18.50;96.50;;;;;;4993687;28;20113;-38
2023/10/11 05:04:33;;;;;;;11.25;4.80;;;17.90;98.40;;;;;;4993990;28;20072;-40
2023/10/11 05:07:09;;;;;;;9.00;4.72;;;18.00;98.40;;;;;;4993885;28;20050;-38
2023/10/11 05:09:39;;;;;;;11.90;5.13;;;18.00;98.30;;;;;;4994002;28;20562;-38
2023/10/11 05:19:56;;;;;;;10.68;4.93;;;18.20;98.30;;;;;;4993469;28;20034;-40
2023/10/11 05:27:39;;;;;;;11.52;4.63;;;18.20;98.20;;;;;;4993132;28;20389;-39
2023/10/11 05:30:13;;;;;;;8.40;4.55;;;18.20;98.20;;;;;;4993054;28;20026;-38
2023/10/11 05:51:40;;;;;;;9.82;4.90;;;18.30;98.30;;;;;;4992304;28;20026;-39
2023/10/11 05:54:09;;;;;;;10.15;4.35;;;18.30;98.30;;;;;;4992216;28;20392;-37
2023/10/11 05:56:45;;;;;;;11.63;4.50;;;18.30;98.30;;;;;;4992331;28;20033;-37
2023/10/11 05:59:13;;;;;;;11.73;4.47;;;18.30;98.30;;;;;;4992519;28;20034;-40
2023/10/11 06:01:43;;;;;;;10.98;4.40;;;18.30;98.20;;;;;;4992200;28;20035;-38
2023/10/11 06:04:13;;;;;;;11.73;4.50;;;18.30;98.20;;;;;;4992160;28;20561;-38
2023/10/11 06:06:42;;;;;;;9.32;4.47;;;18.30;98.20;;;;;;4992047;28;20037;-39
2023/10/11 06:09:16;;;;;;;8.88;4.40;;;18.30;98.20;;;;;;4992055;28;20029;-40
2023/10/11 06:11:49;;;;;;;7.18;4.15;;;18.30;98.60;;;;;;4992627;28;20018;-38
2023/10/11 06:14:17;;;;;;;6.88;4.20;;;18.30;98.20;;;;;;4992123;28;20021;-39
2023/10/11 06:16:49;;;;;;;8.98;4.30;;;18.30;98.20;;;;;;4992104;28;20028;-39
2023/10/11 06:19:26;;;;;;;9.07;4.38;;;18.30;98.20;;;;;;4992062;28;20025;-39
2023/10/11 06:21:59;;;;;;;9.00;4.47;;;18.30;98.20;;;;;;4991831;28;20559;-38
2023/10/11 06:24:26;;;;;;;17.40;5.22;;;18.40;98.20;;;;;;4991998;28;20108;-38
2023/10/11 06:26:52;;;;;;;15.07;5.82;;;18.20;97.00;;;;;;4991460;28;20034;-44
2023/10/11 06:29:29;;;;;;;20.58;5.75;;;17.70;97.50;;;;;;4991693;28;20101;-41
2023/10/11 06:31:55;;;;;;;10.25;4.63;;;17.30;98.30;;;;;;4991766;28;20503;-42
2023/10/11 06:34:26;;;;;;;11.20;4.65;;;17.10;99.00;;;;;;4974165;28;20030;-40
2023/10/11 06:36:53;;;;;;;11.05;5.18;;;17.10;99.00;;;;;;4991534;28;20088;-46
2023/10/11 06:42:14;;;;;;;11.27;4.47;;;17.10;99.30;;;;;;4991658;28;20023;-41
2023/10/11 06:44:40;;;;;;;9.50;4.80;;;17.10;99.30;;;;;;4991523;28;20100;-41
2023/10/11 06:47:06;;;;;;;11.95;5.05;;;17.20;99.40;;;;;;4991418;28;20030;-42
2023/10/11 06:49:40;;;;;;;18.25;6.10;;;17.20;99.40;;;;;;4991645;28;20019;-44
2023/10/11 06:52:07;;;;;;;12.50;4.97;;;17.20;99.40;;;;;;4991632;28;20034;-43
2023/10/11 06:54:32;;;;;;;10.18;4.75;;;17.30;99.40;;;;;;4991360;28;20383;-40
2023/10/11 06:57:01;;;;;;;10.95;4.55;;;17.30;99.40;;;;;;4975772;28;20403;-45
2023/10/11 06:59:28;;;;;;;10.82;5.00;;;17.40;99.40;;;;;;4954676;28;20547;-41
2023/10/11 07:01:54;;;;;;;8.25;4.15;;;17.40;99.40;;;;;;4972001;28;20027;-46
2023/10/11 07:04:19;;;;;;;9.98;4.57;;;17.50;99.40;;;;;;4972035;28;20101;-47
2023/10/11 07:06:49;;;;;;;9.63;4.70;;;17.50;99.40;;;;;;4971685;28;20038;-43
2023/10/11 07:09:29;;;;;;;10.98;4.80;;;17.50;99.30;;;;;;4972292;28;20103;-43
2023/10/11 07:14:42;;;;;;;9.70;4.43;;;17.70;99.30;;;;;;4971935;28;20504;-39
2023/10/11 07:17:12;;;;;;;12.75;4.47;;;17.70;99.30;;;;;;4972153;28;20042;-37
2023/10/11 07:19:38;;;;;;;9.45;4.90;;;17.70;99.30;;;;;;4972242;28;20066;-37
2023/10/11 07:22:05;;;;;;;7.65;4.07;;;17.70;99.30;;;;;;4971841;28;20062;-36
2023/10/11 07:26:59;;;;;;;8.68;4.28;;;17.80;99.30;;;;;;4971670;28;20031;-36
2023/10/11 07:29:26;;;;;;;10.50;3.80;;;17.90;99.30;;;;;;4971778;28;20361;-41
2023/10/11 07:31:52;;;;;;;6.93;3.90;;;17.90;99.30;;;;;;4971744;28;20035;-37
2023/10/11 07:34:20;;;;;;;8.55;4.57;;;17.90;99.30;;;;;;4971824;28;20023;-37
2023/10/11 07:36:50;;;;;;;9.27;4.15;;;17.90;99.30;;;;;;4974998;28;20046;-39
2023/10/11 07:42:06;;;;;;;9.98;3.88;;;18.00;99.30;;;;;;4975762;28;20023;-38
2023/10/11 07:44:36;;;;;;;7.13;3.83;;;18.00;99.30;;;;;;4973935;28;20041;-39
2023/10/11 07:47:07;;;;;;;11.38;4.43;;;18.00;99.20;;;;;;4974943;28;20026;-39
2023/10/11 07:49:39;;;;;;;7.13;3.97;;;18.00;99.30;;;;;;4975050;28;20023;-42
2023/10/11 07:52:08;;;;;;;10.00;4.30;;;18.10;99.30;;;;;;4975057;28;20050;-39
2023/10/11 07:54:43;;;;;;;8.45;4.10;;;18.10;99.30;;;;;;4975415;28;20416;-39
2023/10/11 07:57:15;;;;;;;8.07;4.43;;;18.10;99.20;;;;;;4974825;28;20097;-39
2023/10/11 07:59:45;;;;;;;8.40;3.67;;;18.20;99.30;;;;;;4974884;28;20106;-39
2023/10/11 08:02:27;;;;;;;6.57;3.72;;;18.20;99.20;;;;;;4974919;28;20041;-40
2023/10/11 08:04:53;;;;;;;9.50;3.72;;;18.20;99.20;;;;;;4975490;28;20061;-40
2023/10/11 08:07:21;;;;;;;6.75;3.75;;;18.20;99.20;;;;;;4974469;28;20461;-39
2023/10/11 08:09:47;;;;;;;6.63;3.65;;;18.30;99.20;;;;;;4974838;28;20042;-39
2023/10/11 08:12:18;;;;;;;7.65;3.92;;;18.30;99.20;;;;;;4974716;28;20034;-39
2023/10/11 08:14:45;;;;;;;7.63;3.85;;;18.30;99.20;;;;;;4974500;28;20042;-39
2023/10/11 08:17:19;;;;;;;7.60;3.60;;;18.30;99.20;;;;;;4974508;28;20031;-39
2023/10/11 08:19:48;;;;;;;7.32;3.90;;;18.40;99.20;;;;;;4974490;28;20511;-38
2023/10/11 08:22:14;;;;;;;6.95;3.80;;;18.40;99.20;;;;;;4974512;28;20050;-39
2023/10/11 08:24:46;;;;;;;7.90;3.65;;;18.40;99.20;;;;;;4975124;28;20037;-39
2023/10/11 08:27:13;;;;;;;6.90;3.70;;;18.40;99.20;;;;;;4974179;28;20396;-38
2023/10/11 08:29:42;;;;;;;5.90;3.28;;;18.50;99.20;;;;;;4974340;28;20444;-39
2023/10/11 08:32:12;;;;;;;7.85;3.50;;;18.50;99.20;;;;;;4974302;28;20472;-39
2023/10/11 08:34:43;;;;;;;7.70;3.88;;;18.50;99.20;;;;;;4974212;28;20030;-39
2023/10/11 08:37:08;;;;;;;9.75;3.85;;;18.50;99.20;;;;;;4974016;28;20166;-40
2023/10/11 08:39:44;;;;;;;8.13;3.85;;;18.50;99.20;;;;;;4974297;28;20106;-43
2023/10/11 08:42:12;;;;;;;6.45;3.30;;;18.60;99.20;;;;;;4974177;28;20030;-39
2023/10/11 08:44:45;;;;;;;8.13;3.70;;;18.60;99.20;;;;;;4974143;28;20374;-40
2023/10/11 08:47:16;;;;;;;6.30;3.08;;;18.60;99.20;;;;;;4973734;28;20132;-43
2023/10/11 08:49:46;;;;;;;6.03;3.30;;;18.60;99.20;;;;;;4974105;28;20030;-39
2023/10/11 08:52:19;;;;;;;6.10;3.38;;;18.60;99.20;;;;;;4974031;28;20047;-39
2023/10/11 08:54:45;;;;;;;4.72;2.95;;;18.70;99.30;;;;;;4973872;28;20026;-39
2023/10/11 08:57:13;;;;;;;8.07;3.88;;;18.70;99.20;;;;;;4973518;28;20476;-40
2023/10/11 09:00:17;;;;;;;7.35;3.38;;;18.70;99.60;;;;;;4973798;28;20110;-39
2023/10/11 09:02:48;;;;;;;5.50;3.40;;;18.70;99.20;;;;;;4967895;28;20322;-39
2023/10/11 09:05:29;;;;;;;7.15;3.10;;;18.70;99.20;;;;;;4973489;28;20026;-39
2023/10/11 09:07:55;;;;;;;6.18;3.17;;;18.80;99.20;;;;;;4973546;28;20054;-41
2023/10/11 09:10:29;;;;;;;5.32;3.00;;;18.80;99.20;;;;;;4972300;28;20109;-39
2023/10/11 09:12:57;;;;;;;5.70;3.00;;;18.80;99.20;;;;;;4973836;28;20027;-39
2023/10/11 09:15:24;;;;;;;5.20;3.40;;;18.90;99.20;;;;;;4973494;28;20776;-39
2023/10/11 09:18:08;;;;;;;5.47;3.17;;;18.80;99.20;;;;;;4973352;28;20027;-38
2023/10/11 09:20:40;;;;;;;6.15;3.13;;;18.90;99.20;;;;;;4973517;28;20050;-39
2023/10/11 09:23:06;;;;;;;5.57;3.25;;;18.90;99.20;;;;;;4973411;28;20027;-41
2023/10/11 09:25:47;;;;;;;5.05;3.55;;;18.90;99.20;;;;;;4973093;28;20023;-40
2023/10/11 09:28:18;;;;;;;6.03;3.00;;;18.90;99.20;;;;;;4973207;28;20046;-40
2023/10/11 09:30:44;;;;;;;6.30;3.20;;;19.00;99.30;;;;;;4973247;28;20023;-39
2023/10/11 09:33:19;;;;;;;5.05;2.67;;;19.00;99.30;;;;;;4973157;28;20154;-39
2023/10/11 09:35:49;;;;;;;5.68;2.85;;;19.00;99.20;;;;;;4973000;28;20042;-40
2023/10/11 09:38:19;;;;;;;6.55;2.85;;;19.10;99.20;;;;;;4955569;28;20027;-39
2023/10/11 09:40:45;;;;;;;8.88;2.83;;;19.10;99.30;;;;;;4973000;28;20026;-42
2023/10/11 09:43:16;;;;;;;6.25;2.80;;;19.10;99.20;;;;;;4972917;28;20538;-40
2023/10/11 09:45:44;;;;;;;6.38;2.85;;;19.10;99.20;;;;;;4972782;28;20023;-42
2023/10/11 09:48:19;;;;;;;5.88;2.60;;;19.10;99.50;;;;;;4972875;28;20023;-39
2023/10/11 09:50:44;;;;;;;6.65;3.22;;;19.20;99.20;;;;;;4973050;28;20053;-42
2023/10/11 09:53:14;;;;;;;4.78;2.80;;;19.20;99.20;;;;;;4973002;28;20567;-40
2023/10/11 09:56:05;;;;;;;5.75;2.85;;;19.20;99.20;;;;;;4972726;28;20027;-39
2023/10/11 09:58:57;;;;;;;5.35;2.80;;;19.20;99.20;;;;;;4972484;28;20023;-39
2023/10/11 10:01:38;;;;;;;4.43;2.47;;;19.30;99.20;;;;;;4972765;28;20030;-41
2023/10/11 10:04:08;;;;;;;7.95;3.20;;;19.30;99.20;;;;;;4955309;28;20027;-39
2023/10/11 10:06:33;;;;;;;7.70;2.70;;;19.30;99.20;;;;;;4972473;28;20023;-41
2023/10/11 10:12:20;;;;;;;5.13;2.78;;;19.40;99.20;;;;;;4959708;28;20023;-39
2023/10/11 10:14:50;;;;;;;6.63;2.97;;;19.40;99.20;;;;;;4972483;28;20023;-41
2023/10/11 10:17:16;;;;;;;5.47;3.20;;;19.40;99.20;;;;;;4972436;28;20019;-40
2023/10/11 10:19:44;;;;;;;7.43;2.72;;;19.40;99.20;;;;;;4972587;28;20039;-40
2023/10/11 10:22:10;;;;;;;8.10;2.90;;;19.50;99.20;;;;;;4955122;28;20030;-42
2023/10/11 10:24:36;;;;;;;15.45;3.67;;;19.40;99.20;;;;;;4972303;28;20035;-42
2023/10/11 10:27:33;;;;;;;15.10;3.75;;;19.60;99.30;;;;;;4972064;28;20092;-40
2023/10/11 10:30:06;;;;;;;11.73;3.88;;;19.70;99.20;;;;;;4955011;28;20477;-41
2023/10/11 10:32:33;;;;;;;15.13;4.10;;;19.70;99.10;;;;;;4972427;28;20378;-44
2023/10/11 10:35:18;;;;;;;11.70;3.95;;;19.70;99.10;;;;;;4954753;28;20082;-43
2023/10/11 10:37:50;;;;;;;;;;;19.70;99.10;;;;;;4972486;28;20089;-39
2023/10/11 10:40:27;;;;;;;7.97;3.42;;;19.70;99.10;;;;;;4972232;28;19906;-43
2023/10/11 10:43:27;;;;;;;11.73;3.55;;;19.80;99.20;;;;;;4972319;28;20026;-43
2023/10/11 10:45:59;;;;;;;12.98;3.72;;;19.80;99.90;;;;;;4954634;28;20035;-39
2023/10/11 10:48:25;;;;;;;11.20;3.53;;;19.90;99.90;;;;;;4972092;28;20118;-41
2023/10/11 10:51:06;;;;;;;12.00;3.70;;;19.90;99.90;;;;;;4972984;28;20030;-39
2023/10/11 10:53:38;;;;;;;9.95;3.45;;;19.90;99.90;;;;;;4973352;28;20027;-39
2023/10/11 10:56:04;;;;;;;9.15;3.00;;;19.90;99.90;;;;;;4972141;28;20027;-39
2023/10/11 10:58:30;;;;;;;8.07;3.53;;;19.90;99.90;;;;;;4972224;28;20033;-39
2023/10/11 11:00:59;;;;;;;9.13;2.90;;;19.90;99.90;;;;;;4972143;28;20110;-39
2023/10/11 11:03:31;;;;;;;7.10;2.80;;;20.00;99.90;;;;;;4954602;28;20031;-39
2023/10/11 11:06:00;;;;;;;8.15;3.08;;;20.00;99.90;;;;;;4954524;28;20046;-42
2023/10/11 11:08:28;;;;;;;9.57;3.53;;;20.00;99.90;;;;;;4971890;28;20023;-39
2023/10/11 11:11:25;;;;;;;9.52;2.92;;;20.00;99.90;;;;;;4973663;28;20027;-39
2023/10/11 11:13:52;;;;;;;5.85;2.78;;;20.00;99.90;;;;;;4975834;28;20021;-40
2023/10/11 11:16:29;;;;;;;10.23;3.05;;;20.00;99.90;;;;;;4958062;28;20042;-40
2023/10/11 11:19:00;;;;;;;9.77;2.45;;;20.10;99.90;;;;;;4975623;28;20122;-39
2023/10/11 11:21:29;;;;;;;7.25;3.05;;;20.00;99.90;;;;;;4975610;28;20508;-39
2023/10/11 11:23:55;;;;;;;10.18;3.35;;;20.10;99.90;;;;;;4975633;28;20030;-39
2023/10/11 11:26:23;;;;;;;5.95;2.90;;;20.00;99.90;;;;;;4957979;28;20217;-39
2023/10/11 11:28:53;;;;;;;9.43;3.13;;;20.00;99.90;;;;;;4975822;28;20022;-39
2023/10/11 11:34:08;;;;;;;5.95;2.58;;;20.10;99.90;;;;;;4975648;28;20019;-40
2023/10/11 11:36:35;;;;;;;11.25;3.22;;;19.90;98.80;;;;;;4975117;28;20038;-39
2023/10/11 11:39:24;;;;;;;7.50;3.03;;;20.00;99.00;;;;;;4975377;28;20406;-40
2023/10/11 11:41:53;;;;;;;8.98;3.03;;;20.00;99.00;;;;;;4975141;28;20029;-41
2023/10/11 11:44:23;;;;;;;8.10;3.13;;;20.00;99.40;;;;;;4975429;28;20159;-39
2023/10/11 11:46:53;;;;;;;4.97;2.45;;;20.00;99.00;;;;;;4974916;28;20054;-39
2023/10/11 11:49:23;;;;;;;7.75;3.17;;;20.00;99.00;;;;;;4975206;28;20086;-39
2023/10/11 11:51:55;;;;;;;8.15;3.28;;;20.00;99.00;;;;;;4975074;28;20062;-39
2023/10/11 11:54:28;;;;;;;6.93;2.78;;;20.10;99.00;;;;;;4974874;28;20031;-39
2023/10/11 11:56:54;;;;;;;7.10;2.75;;;20.00;99.00;;;;;;4974883;28;20035;-39
2023/10/11 11:59:21;;;;;;;6.82;2.55;;;20.10;99.00;;;;;;4974924;28;20081;-40
2023/10/11 12:01:49;;;;;;;7.25;3.00;;;20.10;99.00;;;;;;4974983;28;20042;-39
2023/10/11 12:04:20;;;;;;;6.65;2.75;;;20.10;99.00;;;;;;4957509;28;20030;-40
2023/10/11 12:06:47;;;;;;;7.03;2.95;;;20.10;99.00;;;;;;4974434;28;20058;-39
2023/10/11 12:09:20;;;;;;;9.77;3.30;;;20.10;99.00;;;;;;4974820;28;20031;-36
2023/10/11 12:11:49;;;;;;;6.75;3.17;;;20.20;98.00;;;;;;4974653;28;20051;-36
2023/10/11 12:14:15;;;;;;;11.07;3.33;;;20.20;97.20;;;;;;4974770;28;20027;-36
2023/10/11 12:16:42;;;;;;;9.65;2.90;;;20.20;97.60;;;;;;4975074;28;20034;-36
2023/10/11 12:19:13;;;;;;;12.23;3.28;;;20.20;97.30;;;;;;4974653;28;20026;-38
2023/10/11 12:21:39;;;;;;;7.63;3.05;;;20.20;97.30;;;;;;4974087;28;20065;-36
2023/10/11 12:24:10;;;;;;;11.50;3.55;;;20.20;97.70;;;;;;4974550;28;20119;-38
2023/10/11 12:26:40;;;;;;;11.38;3.65;;;20.30;97.40;;;;;;4974198;28;20392;-36
2023/10/11 12:29:08;;;;;;;7.57;3.00;;;20.30;97.50;;;;;;4974541;28;20106;-36
2023/10/11 12:31:40;;;;;;;6.88;3.15;;;20.30;97.80;;;;;;4974424;28;20030;-36
2023/10/11 12:34:09;;;;;;;8.73;3.35;;;20.30;97.50;;;;;;4973228;28;20023;-36
2023/10/11 12:36:39;;;;;;;9.57;3.35;;;20.30;97.60;;;;;;4973964;28;20043;-36
2023/10/11 12:39:20;;;;;;;5.90;2.75;;;20.30;97.60;;;;;;4974283;28;20026;-37
2023/10/11 12:41:54;;;;;;;10.25;3.22;;;20.40;97.70;;;;;;4974218;28;20031;-36
2023/10/11 12:44:20;;;;;;;10.07;2.50;;;20.30;97.60;;;;;;4974126;28;20041;-37
2023/10/11 12:46:51;;;;;;;7.38;2.88;;;20.30;97.60;;;;;;4973811;28;20035;-37
2023/10/11 12:49:17;;;;;;;7.07;2.88;;;20.30;97.70;;;;;;4974179;28;20058;-36
2023/10/11 12:51:45;;;;;;;5.47;2.97;;;20.40;97.70;;;;;;4974365;28;20137;-36
2023/10/11 12:54:20;;;;;;;7.25;2.58;;;20.40;97.70;;;;;;4974035;28;20038;-37
2023/10/11 12:56:46;;;;;;;5.10;2.55;;;20.40;97.70;;;;;;4973600;28;20420;-37
2023/10/11 12:59:15;;;;;;;7.45;2.92;;;20.40;97.70;;;;;;4974300;28;20085;-37
2023/10/11 13:01:55;;;;;;;5.05;2.38;;;20.40;97.80;;;;;;4973805;28;20030;-36
2023/10/11 13:04:29;;;;;;;6.20;2.50;;;20.40;97.80;;;;;;4972566;28;20093;-36
2023/10/11 13:06:59;;;;;;;6.07;2.60;;;20.40;97.80;;;;;;4973450;28;20519;-37
2023/10/11 13:09:27;;;;;;;4.97;2.78;;;20.40;97.80;;;;;;4956144;28;20038;-37
2023/10/11 13:11:56;;;;;;;7.63;3.10;;;20.40;97.80;;;;;;4973684;28;20310;-37
2023/10/11 13:14:23;;;;;;;5.10;2.55;;;20.40;97.80;;;;;;4973447;28;20447;-37
2023/10/11 13:17:00;;;;;;;6.32;2.95;;;20.40;97.80;;;;;;4973422;28;20031;-37
2023/10/11 13:19:26;;;;;;;4.53;2.58;;;20.40;97.80;;;;;;4973620;28;20505;-37
2023/10/11 13:21:54;;;;;;;5.18;2.47;;;20.40;97.80;;;;;;4973197;28;20054;-39
2023/10/11 13:24:25;;;;;;;8.07;3.10;;;20.40;97.80;;;;;;4973544;28;20027;-37
2023/10/11 13:26:54;;;;;;;6.50;2.63;;;20.40;97.80;;;;;;4973087;28;20027;-37
2023/10/11 13:29:22;;;;;;;5.45;2.55;;;20.40;97.80;;;;;;4973503;28;20109;-37
2023/10/11 13:31:53;;;;;;;4.15;2.30;;;20.40;97.80;;;;;;4973352;28;20026;-37
2023/10/11 13:34:20;;;;;;;4.60;2.35;;;20.40;97.80;;;;;;4972280;28;20066;-38
2023/10/11 13:36:45;;;;;;;6.00;2.63;;;20.50;97.80;;;;;;4955994;28;20066;-35
2023/10/11 13:39:26;;;;;;;7.75;2.63;;;20.40;97.80;;;;;;4973175;28;20081;-35
2023/10/11 13:41:56;;;;;;;5.10;2.75;;;20.40;97.80;;;;;;4973062;28;20034;-35
2023/10/11 13:44:23;;;;;;;10.10;2.75;;;20.40;97.50;;;;;;4973170;28;20496;-35
2023/10/11 13:46:51;;;;;;;7.82;2.78;;;20.50;96.60;;;;;;4972499;28;20023;-35
2023/10/11 13:49:27;;;;;;;10.05;2.60;;;20.50;96.90;;;;;;4955513;28;20034;-34
2023/10/11 13:51:58;;;;;;;8.63;3.20;;;20.50;96.70;;;;;;4972812;28;20026;-35
2023/10/11 13:54:45;;;;;;;7.85;2.97;;;20.50;96.70;;;;;;4972825;28;20034;-36
2023/10/11 13:57:15;;;;;;;12.05;2.53;;;20.50;96.70;;;;;;4972580;28;20022;-34
2023/10/11 13:59:45;;;;;;;10.63;3.00;;;20.60;96.30;;;;;;4972842;28;20035;-37
2023/10/11 14:04:58;;;;;;;8.40;3.10;;;20.70;95.80;;;;;;4972621;28;20106;-35
2023/10/11 14:07:33;;;;;;;8.95;3.08;;;20.60;95.80;;;;;;4972341;28;20165;-36
2023/10/11 14:10:00;;;;;;;9.13;2.60;;;20.70;95.90;;;;;;4972765;28;20093;-35
2023/10/11 14:12:31;;;;;;;11.15;3.03;;;20.70;95.90;;;;;;4971356;28;20109;-40